Time;durP1;ratioP1;P1;durP2;ratioP2;P2;SDS_P1;SDS_P2;PMS_P1;PMS_P2;Temp;Humidity;BMP_temperature;BMP_pressure;BME280_temperature;BME280_humidity;BME280_pressure;Samples;Min_cycle;Max_cycle;Signal;HPM_P1;HPM_P2
2023/01/30 00:01:42;;;;;;;26.88;17.83;;;;;;;4.42;100.00;100494.66;4997383;28;20188;-43
2023/01/30 00:04:11;;;;;;;28.60;18.88;;;;;;;4.44;100.00;100482.22;5008636;28;20197;-42
2023/01/30 00:06:37;;;;;;;30.23;18.45;;;;;;;4.47;100.00;100474.19;4999618;28;20192;-42
2023/01/30 00:09:03;;;;;;;27.55;18.20;;;;;;;4.46;100.00;100461.84;4996954;28;20180;-43
2023/01/30 00:11:30;;;;;;;29.35;18.33;;;;;;;4.50;100.00;100460.00;4999031;28;20272;-42
2023/01/30 00:13:56;;;;;;;30.15;18.15;;;;;;;4.48;100.00;100457.41;4997875;28;20189;-44
2023/01/30 00:16:22;;;;;;;28.70;17.52;;;;;;;4.47;100.00;100460.94;5000210;28;20199;-43
2023/01/30 00:18:47;;;;;;;32.10;19.00;;;;;;;4.44;100.00;100438.88;4998135;28;20220;-41
2023/01/30 00:21:14;;;;;;;30.83;18.63;;;;;;;4.45;100.00;100428.25;4994798;28;20189;-43
2023/01/30 00:23:40;;;;;;;33.63;19.52;;;;;;;4.50;100.00;100434.38;4994426;28;20284;-43
2023/01/30 00:26:06;;;;;;;25.70;18.15;;;;;;;4.48;100.00;100422.91;4998064;28;20291;-48
2023/01/30 00:28:32;;;;;;;34.58;19.15;;;;;;;4.52;100.00;100439.63;4999635;28;20264;-46
2023/01/30 00:30:58;;;;;;;26.33;18.73;;;;;;;4.51;100.00;100420.19;5006861;28;20539;-47
2023/01/30 00:33:25;;;;;;;29.35;19.20;;;;;;;4.43;100.00;100438.03;4998932;28;20240;-45
2023/01/30 00:35:52;;;;;;;31.35;19.10;;;;;;;4.44;100.00;100425.63;4995071;28;20268;-48
2023/01/30 00:38:18;;;;;;;29.98;18.05;;;;;;;4.40;100.00;100381.53;5008275;28;20221;-46
2023/01/30 00:40:46;;;;;;;31.25;19.60;;;;;;;4.47;100.00;100420.28;4997277;28;20173;-46
2023/01/30 00:48:47;;;;;;;32.60;19.70;;;;;;;4.36;100.00;100386.00;4996117;28;20323;-45
2023/01/30 00:51:13;;;;;;;29.65;18.90;;;;;;;4.34;100.00;100383.38;5001753;28;20271;-45
2023/01/30 00:53:39;;;;;;;34.90;18.73;;;;;;;4.36;100.00;100385.16;5009014;28;20177;-48
2023/01/30 00:56:05;;;;;;;30.83;19.40;;;;;;;4.36;100.00;100385.16;4998888;28;20185;-47
2023/01/30 00:58:30;;;;;;;31.98;19.55;;;;;;;4.37;100.00;100374.47;5000514;28;20197;-45
2023/01/30 01:00:56;;;;;;;27.35;18.42;;;;;;;4.37;100.00;100370.97;4994920;28;20660;-46
2023/01/30 01:03:22;;;;;;;24.95;16.02;;;;;;;4.43;100.00;100371.72;4998629;28;20255;-46
2023/01/30 01:05:48;;;;;;;30.42;17.20;;;;;;;4.44;100.00;100364.63;4999734;28;20273;-47
2023/01/30 01:08:13;;;;;;;26.35;17.00;;;;;;;4.40;100.00;100366.47;4998560;28;20216;-47
2023/01/30 01:10:39;;;;;;;24.30;15.98;;;;;;;4.41;100.00;100364.69;4997234;28;20185;-46
2023/01/30 01:13:05;;;;;;;26.05;16.23;;;;;;;4.42;100.00;100343.47;4997836;28;20185;-47
2023/01/30 01:15:31;;;;;;;26.20;15.43;;;;;;;4.44;100.00;100338.09;5004372;28;20585;-46
2023/01/30 01:17:58;;;;;;;27.13;14.02;;;;;;;4.45;100.00;100351.34;5001289;28;20671;-47
2023/01/30 01:20:25;;;;;;;30.83;14.70;;;;;;;4.45;100.00;100351.34;5000394;28;20606;-45
2023/01/30 01:22:55;;;;;;;24.02;13.00;;;;;;;4.51;100.00;100335.31;5006624;28;20193;-47
2023/01/30 01:25:21;;;;;;;21.25;11.75;;;;;;;4.51;100.00;100331.78;4999763;28;20301;-48
2023/01/30 01:27:48;;;;;;;20.52;12.25;;;;;;;4.50;100.00;100335.31;4982187;28;20647;-46
2023/01/30 01:30:16;;;;;;;21.50;11.30;;;;;;;4.54;100.00;100321.94;4997922;28;20231;-46
2023/01/30 01:32:42;;;;;;;21.83;11.25;;;;;;;4.63;100.00;100330.63;4999095;28;20276;-48
2023/01/30 01:35:09;;;;;;;21.10;10.25;;;;;;;4.64;100.00;100306.72;4995626;28;20191;-47
2023/01/30 01:37:36;;;;;;;18.30;10.00;;;;;;;4.68;100.00;100326.09;5007692;28;20207;-46
2023/01/30 01:42:46;;;;;;;17.48;9.27;;;;;;;4.64;100.00;100309.38;4996567;28;20297;-47
2023/01/30 01:45:18;;;;;;;16.02;8.32;;;;;;;4.68;100.00;100316.38;4997063;28;20228;-47
2023/01/30 01:48:04;;;;;;;18.90;9.23;;;;;;;4.63;100.00;100314.72;4996921;28;20284;-47
2023/01/30 01:50:48;;;;;;;16.20;8.23;;;;;;;4.63;100.00;100297.00;5006731;28;20267;-49
2023/01/30 01:53:18;;;;;;;14.95;7.78;;;;;;;4.65;100.00;100304.94;4994771;28;20220;-48
2023/01/30 01:55:48;;;;;;;11.73;7.15;;;;;;;4.68;100.00;100273.00;5006400;28;20280;-47
2023/01/30 01:58:24;;;;;;;10.73;7.00;;;;;;;4.71;100.00;100283.56;5006347;28;20208;-49
2023/01/30 02:00:51;;;;;;;13.48;6.40;;;;;;;4.72;100.00;100261.44;4995787;28;20600;-46
2023/01/30 02:03:22;;;;;;;16.73;6.32;;;;;;;4.74;100.00;100252.53;4992433;28;20912;-46
2023/01/30 02:05:51;;;;;;;10.50;5.88;;;;;;;4.73;100.00;100257.88;4998827;28;20184;-47
2023/01/30 02:08:22;;;;;;;11.77;6.13;;;;;;;4.75;100.00;100258.72;4995407;28;20244;-45
2023/01/30 02:11:02;;;;;;;10.95;5.60;;;;;;;4.75;100.00;100256.94;4996012;28;20185;-46
2023/01/30 02:13:28;;;;;;;13.27;5.03;;;;;;;4.74;100.00;100270.22;4996443;28;20494;-44
2023/01/30 02:15:59;;;;;;;10.55;5.43;;;;;;;4.80;100.00;100269.22;5005264;28;20177;-46
2023/01/30 02:18:24;;;;;;;10.75;5.13;;;;;;;4.80;100.00;100251.50;4997306;28;20201;-45
2023/01/30 02:21:02;;;;;;;7.90;4.80;;;;;;;4.83;100.00;100229.31;4996164;28;20185;-46
2023/01/30 02:23:43;;;;;;;7.03;4.18;;;;;;;4.88;100.00;100230.97;4998718;28;20181;-45
2023/01/30 02:26:29;;;;;;;10.88;4.95;;;;;;;4.99;100.00;100233.38;4996724;28;20701;-49
2023/01/30 02:29:04;;;;;;;8.25;4.35;;;;;;;4.90;100.00;100254.84;5004935;28;20173;-47
2023/01/30 02:32:08;;;;;;;9.52;3.72;;;;;;;4.95;100.00;100267.06;4997260;28;20539;-46
2023/01/30 02:34:55;;;;;;;11.23;3.67;;;;;;;4.95;100.00;100263.53;4992624;28;20335;-46
2023/01/30 02:37:48;;;;;;;10.65;3.90;;;;;;;4.95;100.00;100258.25;4996598;28;20241;-47
2023/01/30 02:40:50;;;;;;;4.57;2.50;;;;;;;5.00;100.00;100256.31;4995184;28;20679;-47
2023/01/30 02:43:27;;;;;;;8.15;2.70;;;;;;;4.95;100.00;100266.19;5014435;28;20674;-46
2023/01/30 02:45:59;;;;;;;6.93;2.05;;;;;;;4.86;100.00;100269.09;4998220;28;20181;-46
2023/01/30 02:48:27;;;;;;;4.38;1.60;;;;;;;4.78;100.00;100265.72;5010002;28;20201;-46
2023/01/30 02:50:58;;;;;;;5.78;1.38;;;;;;;4.73;100.00;100273.81;5003337;28;20772;-47
2023/01/30 02:53:24;;;;;;;6.00;1.70;;;;;;;4.66;100.00;100264.25;4997189;28;20259;-46
2023/01/30 02:55:49;;;;;;;6.22;1.77;;;;;;;4.62;100.00;100266.09;5002854;28;20191;-47
2023/01/30 02:58:20;;;;;;;8.80;2.00;;;;;;;4.58;100.00;100280.31;5011218;28;20205;-46
2023/01/30 03:01:11;;;;;;;9.38;1.65;;;;;;;4.50;100.00;100291.13;5015751;28;20239;-46
2023/01/30 03:04:05;;;;;;;6.90;1.70;;;;;;;4.58;100.00;100275.03;4998457;28;20217;-47
2023/01/30 03:06:50;;;;;;;7.57;1.10;;;;;;;4.42;100.00;100281.59;4984643;28;20189;-48
2023/01/30 03:09:27;;;;;;;14.20;1.92;;;;;;;4.33;100.00;100270.25;5002284;28;20184;-46
2023/01/30 03:12:02;;;;;;;13.45;2.30;;;;;;;4.28;100.00;100276.56;5000469;28;20197;-48
2023/01/30 03:14:57;;;;;;;14.20;2.55;;;;;;;4.24;100.00;100259.84;4995938;28;20180;-48
2023/01/30 03:17:25;;;;;;;15.80;2.70;;;;;;;4.31;100.00;100263.25;5002682;28;20229;-48
2023/01/30 03:19:54;;;;;;;10.73;2.10;;;;;;;4.26;100.00;100259.81;5002247;28;20272;-50
2023/01/30 03:22:21;;;;;;;14.60;2.63;;;;;;;4.20;100.00;100262.59;5007727;28;20283;-47
2023/01/30 03:24:49;;;;;;;13.38;2.17;;;;;;;4.11;100.00;100246.00;5014652;28;20247;-47
2023/01/30 03:27:15;;;;;;;10.43;1.80;;;;;;;4.05;100.00;100248.75;5005468;28;20759;-47
2023/01/30 03:29:40;;;;;;;9.65;1.92;;;;;;;4.13;100.00;100245.94;5007823;28;20185;-47
2023/01/30 03:32:06;;;;;;;18.00;2.33;;;;;;;4.01;100.00;100239.13;4997753;28;20705;-48
2023/01/30 03:34:32;;;;;;;12.80;2.30;;;;;;;3.96;100.00;100241.00;5013811;28;20730;-46
2023/01/30 03:36:58;;;;;;;8.45;1.88;;;;;;;3.96;100.00;100266.63;4994812;28;20201;-47
2023/01/30 03:39:24;;;;;;;10.77;1.98;;;;;;;4.06;100.00;100274.34;5001518;28;20198;-48
2023/01/30 03:41:52;;;;;;;16.10;2.05;;;;;;;4.03;100.00;100269.13;5012382;28;20193;-49
2023/01/30 03:44:18;;;;;;;9.20;2.13;;;;;;;3.94;100.00;100276.41;4999282;28;20247;-49
2023/01/30 03:46:44;;;;;;;14.07;2.30;;;;;;;4.01;100.00;100259.47;4999979;28;20314;-47
2023/01/30 03:49:09;;;;;;;12.75;1.98;;;;;;;4.02;100.00;100247.94;5007622;28;20276;-47
2023/01/30 03:51:35;;;;;;;15.48;2.58;;;;;;;3.96;100.00;100242.75;5000126;28;20186;-49
2023/01/30 03:54:01;;;;;;;10.68;2.15;;;;;;;3.88;100.00;100229.69;4997811;28;20627;-47
2023/01/30 03:56:28;;;;;;;16.13;2.60;;;;;;;3.85;100.00;100229.75;5004410;28;20184;-47
2023/01/30 03:58:54;;;;;;;13.50;2.50;;;;;;;3.95;100.00;100233.94;4999548;28;20192;-48
2023/01/30 04:01:28;;;;;;;17.75;2.45;;;;;;;3.83;100.00;100218.31;4996176;28;20703;-47
2023/01/30 04:03:53;;;;;;;20.38;2.83;;;;;;;3.81;100.00;100225.41;4999170;28;20205;-48
2023/01/30 04:06:19;;;;;;;16.10;2.72;;;;;;;3.80;100.00;100229.81;5017728;28;20188;-48
2023/01/30 04:08:44;;;;;;;17.63;2.72;;;;;;;3.82;100.00;100251.00;4997600;28;20293;-48
2023/01/30 04:11:21;;;;;;;18.58;3.08;;;;;;;3.85;100.00;100224.47;4998373;28;20189;-46
2023/01/30 04:13:47;;;;;;;18.58;3.15;;;;;;;3.75;100.00;100236.13;5000891;28;20200;-49
2023/01/30 04:16:20;;;;;;;13.77;2.72;;;;;;;3.78;100.00;100236.06;4998496;28;20208;-47
2023/01/30 04:19:04;;;;;;;14.43;3.15;;;;;;;3.79;100.00;100222.78;5002278;28;20247;-47
2023/01/30 04:21:31;;;;;;;13.80;3.00;;;;;;;3.72;100.00;100213.22;5001080;28;20698;-47
2023/01/30 04:23:57;;;;;;;14.38;2.88;;;;;;;3.66;100.00;100218.66;5000135;28;20292;-48
2023/01/30 04:26:23;;;;;;;21.23;2.97;;;;;;;3.64;100.00;100212.50;4998991;28;20235;-47
2023/01/30 04:28:48;;;;;;;16.45;3.00;;;;;;;3.63;100.00;100216.94;5019133;28;20215;-49
2023/01/30 04:31:14;;;;;;;17.75;3.25;;;;;;;3.54;100.00;100227.69;4997969;28;20189;-48
2023/01/30 04:33:52;;;;;;;18.88;3.25;;;;;;;3.55;100.00;100212.69;4998704;28;20308;-46
2023/01/30 04:36:17;;;;;;;19.75;3.17;;;;;;;3.54;100.00;100218.88;4998769;28;20725;-47
2023/01/30 04:38:44;;;;;;;18.70;3.00;;;;;;;3.53;100.00;100214.50;4999198;28;20209;-49
2023/01/30 04:41:11;;;;;;;24.88;3.28;;;;;;;3.55;100.00;100218.84;4995605;28;20276;-48
2023/01/30 04:43:39;;;;;;;19.30;3.30;;;;;;;3.54;100.00;100225.03;4997916;28;20210;-46
2023/01/30 04:46:37;;;;;;;19.92;3.58;;;;;;;3.46;100.00;100203.16;5000272;28;20212;-48
2023/01/30 04:49:02;;;;;;;20.17;3.78;;;;;;;3.52;100.00;100210.97;4999128;28;20185;-48
2023/01/30 04:51:28;;;;;;;22.45;3.50;;;;;;;3.45;100.00;100212.84;4999097;28;20231;-48
2023/01/30 04:53:56;;;;;;;23.65;3.67;;;;;;;3.47;100.00;100205.75;5002675;28;20180;-47
2023/01/30 04:56:21;;;;;;;19.13;3.65;;;;;;;3.49;100.00;100208.38;5006288;28;20239;-48
2023/01/30 04:58:48;;;;;;;24.80;3.42;;;;;;;3.45;100.00;100211.97;4998921;28;20304;-47
2023/01/30 05:01:24;;;;;;;25.42;3.75;;;;;;;3.39;100.00;100212.09;4994421;28;20189;-49
2023/01/30 05:03:52;;;;;;;18.98;3.20;;;;;;;3.42;100.00;100204.09;5007662;28;20311;-45
2023/01/30 05:06:18;;;;;;;23.45;3.38;;;;;;;3.45;100.00;100218.13;4999914;28;20189;-48
2023/01/30 05:08:47;;;;;;;27.60;4.07;;;;;;;3.44;100.00;100210.25;4995936;28;20312;-46
2023/01/30 05:11:12;;;;;;;29.00;4.13;;;;;;;3.34;100.00;100206.88;4999796;28;20193;-48
2023/01/30 05:13:38;;;;;;;28.48;4.93;;;;;;;3.38;100.00;100205.06;4997918;28;20941;-49
2023/01/30 05:16:03;;;;;;;26.25;4.22;;;;;;;3.36;100.00;100210.38;4997408;28;20192;-48
2023/01/30 05:18:29;;;;;;;25.05;4.47;;;;;;;3.36;100.00;100201.56;5000774;28;20219;-46
2023/01/30 05:21:06;;;;;;;22.98;4.07;;;;;;;3.37;100.00;100203.28;4996362;28;20207;-48
2023/01/30 05:23:31;;;;;;;23.27;4.35;;;;;;;3.39;100.00;100202.41;4997341;28;20200;-48
2023/01/30 05:25:57;;;;;;;25.30;4.00;;;;;;;3.41;100.00;100202.34;5005583;28;20200;-47
2023/01/30 05:28:22;;;;;;;30.77;4.10;;;;;;;3.43;100.00;100206.72;4997107;28;20205;-47
2023/01/30 05:30:48;;;;;;;30.58;4.28;;;;;;;3.39;100.00;100206.78;4996840;28;20219;-47
2023/01/30 05:33:13;;;;;;;27.83;4.10;;;;;;;3.43;100.00;100198.78;4998019;28;20195;-46
2023/01/30 05:35:45;;;;;;;26.38;4.22;;;;;;;3.42;100.00;100204.09;4994930;28;20547;-46
2023/01/30 05:38:11;;;;;;;24.17;4.05;;;;;;;3.40;100.00;100190.88;4999218;28;20204;-46
2023/01/30 05:40:37;;;;;;;26.92;3.63;;;;;;;3.43;100.00;100189.94;4997520;28;20193;-47
2023/01/30 05:43:02;;;;;;;21.20;3.13;;;;;;;3.41;100.00;100189.09;4995370;28;20193;-46
2023/01/30 05:45:28;;;;;;;28.45;3.25;;;;;;;3.37;100.00;100182.13;4998517;28;20208;-48
2023/01/30 05:47:53;;;;;;;18.17;3.33;;;;;;;3.43;100.00;100185.53;4999412;28;20267;-48
2023/01/30 05:50:19;;;;;;;22.55;4.90;;;;;;;3.47;100.00;100194.28;5003903;28;20267;-46
2023/01/30 05:52:45;;;;;;;24.45;4.35;;;;;;;3.37;100.00;100185.66;4998221;28;20197;-47
2023/01/30 05:55:10;;;;;;;26.70;3.70;;;;;;;3.43;100.00;100203.19;4999965;28;20199;-46
2023/01/30 05:57:35;;;;;;;32.50;3.85;;;;;;;3.49;100.00;100195.13;5001676;28;20208;-49
2023/01/30 06:00:02;;;;;;;23.17;4.10;;;;;;;3.54;100.00;100177.38;4997914;28;20283;-47
2023/01/30 06:02:38;;;;;;;27.63;3.78;;;;;;;3.63;100.00;100195.75;4997209;28;20192;-48
2023/01/30 06:05:04;;;;;;;23.50;3.53;;;;;;;3.71;100.00;100201.75;4999170;28;20204;-47
2023/01/30 06:07:30;;;;;;;26.85;4.40;;;;;;;3.78;100.00;100193.66;4999888;28;20220;-46
2023/01/30 06:09:56;;;;;;;26.92;3.88;;;;;;;3.72;100.00;100184.94;4997846;28;20184;-47
2023/01/30 06:12:22;;;;;;;24.52;3.65;;;;;;;3.69;100.00;100187.66;4997919;28;20200;-47
2023/01/30 06:14:47;;;;;;;26.15;4.88;;;;;;;3.69;100.00;100189.44;4996096;28;20185;-46
2023/01/30 06:17:13;;;;;;;30.55;4.45;;;;;;;3.71;100.00;100199.09;4996896;28;20213;-45
2023/01/30 06:19:38;;;;;;;23.98;4.20;;;;;;;3.71;100.00;100195.56;5000196;28;20185;-46
2023/01/30 06:22:04;;;;;;;20.55;3.70;;;;;;;3.65;100.00;100178.03;4993879;28;20335;-46
2023/01/30 06:24:29;;;;;;;26.50;4.47;;;;;;;3.71;100.00;100179.69;4996556;28;20220;-42
2023/01/30 06:26:55;;;;;;;15.40;3.75;;;;;;;3.69;100.00;100177.06;4992082;28;20213;-44
2023/01/30 06:29:20;;;;;;;30.08;4.90;;;;;;;3.76;100.00;100177.81;5002554;28;20204;-42
2023/01/30 06:31:46;;;;;;;19.55;3.30;;;;;;;3.69;100.00;100169.09;4997138;28;20263;-48
2023/01/30 06:34:11;;;;;;;26.95;4.53;;;;;;;3.63;100.00;100168.34;5001893;28;20200;-44
2023/01/30 06:36:37;;;;;;;23.83;4.20;;;;;;;3.55;100.00;100181.78;4992672;28;20193;-42
2023/01/30 06:39:03;;;;;;;28.15;3.95;;;;;;;3.63;100.00;100165.72;4997396;28;20216;-45
2023/01/30 06:41:28;;;;;;;28.13;4.45;;;;;;;3.72;100.00;100157.59;4995170;28;20216;-47
2023/01/30 06:43:54;;;;;;;18.05;3.58;;;;;;;3.59;100.00;100161.41;4994996;28;20296;-45
2023/01/30 06:46:20;;;;;;;26.55;4.18;;;;;;;3.57;100.00;100166.72;4998061;28;20199;-43
2023/01/30 06:48:46;;;;;;;23.88;4.47;;;;;;;3.60;100.00;100171.09;4995682;28;20202;-42
2023/01/30 06:51:11;;;;;;;22.65;4.45;;;;;;;3.59;100.00;100180.81;4998390;28;20223;-46
2023/01/30 06:53:36;;;;;;;26.20;5.03;;;;;;;3.64;100.00;100175.41;4996590;28;20717;-49
2023/01/30 06:56:02;;;;;;;25.42;4.45;;;;;;;3.58;100.00;100172.88;4995032;28;20186;-46
2023/01/30 06:58:28;;;;;;;23.55;4.10;;;;;;;3.67;100.00;100173.59;4999318;28;20557;-44
2023/01/30 07:00:54;;;;;;;26.42;4.53;;;;;;;3.76;100.00;100184.88;4999109;28;20197;-45
2023/01/30 07:03:19;;;;;;;28.40;4.40;;;;;;;3.80;100.00;100181.25;4998928;28;20632;-46
2023/01/30 07:05:46;;;;;;;24.88;3.50;;;;;;;3.83;100.00;100178.56;4997877;28;20308;-44
2023/01/30 07:08:12;;;;;;;25.90;4.05;;;;;;;3.85;100.00;100174.97;4998753;28;20228;-45
2023/01/30 07:10:38;;;;;;;26.40;4.40;;;;;;;3.79;100.00;100172.44;4997340;28;20177;-44
2023/01/30 07:13:03;;;;;;;24.52;4.20;;;;;;;3.77;100.00;100176.91;4996959;28;20184;-47
2023/01/30 07:15:30;;;;;;;29.58;4.53;;;;;;;3.79;100.00;100168.94;4997369;28;20212;-44
2023/01/30 07:17:56;;;;;;;18.75;3.47;;;;;;;3.84;100.00;100167.06;4998884;28;20676;-49
2023/01/30 07:20:21;;;;;;;28.92;4.60;;;;;;;3.80;100.00;100160.94;5010504;28;20234;-45
2023/01/30 07:22:51;;;;;;;28.98;4.15;;;;;;;3.88;100.00;100150.19;4999229;28;20205;-44
2023/01/30 07:25:18;;;;;;;30.00;4.32;;;;;;;4.01;100.00;100167.56;4997898;28;20217;-44
2023/01/30 07:27:52;;;;;;;31.70;4.80;;;;;;;4.02;100.00;100166.63;5006147;28;20264;-43
2023/01/30 07:30:18;;;;;;;30.55;4.70;;;;;;;4.04;100.00;100153.34;5004814;28;20338;-51
2023/01/30 07:32:44;;;;;;;22.70;3.80;;;;;;;4.07;100.00;100150.66;4996537;28;20264;-44
2023/01/30 07:35:09;;;;;;;26.83;4.55;;;;;;;4.06;100.00;100146.25;4999216;28;20185;-43
2023/01/30 07:37:35;;;;;;;28.70;4.03;;;;;;;4.06;100.00;100143.59;5000470;28;20271;-45
2023/01/30 07:40:01;;;;;;;22.50;4.10;;;;;;;4.06;100.00;100144.47;4999713;28;20782;-51
2023/01/30 07:42:26;;;;;;;21.23;4.10;;;;;;;4.15;100.00;100166.38;4996714;28;20280;-45
2023/01/30 07:44:52;;;;;;;34.63;5.38;;;;;;;4.12;100.00;100152.28;5000632;28;20254;-43
2023/01/30 07:47:18;;;;;;;28.75;5.43;;;;;;;4.17;100.00;100153.97;5002829;28;20606;-45
2023/01/30 07:49:44;;;;;;;23.05;4.35;;;;;;;4.27;100.00;100144.91;5001027;28;20782;-44
2023/01/30 07:52:10;;;;;;;29.58;6.05;;;;;;;4.36;100.00;100143.81;4982594;28;20239;-46
2023/01/30 07:54:35;;;;;;;27.98;4.85;;;;;;;4.40;100.00;100156.09;5002834;28;20264;-44
2023/01/30 07:57:01;;;;;;;31.85;5.38;;;;;;;4.41;100.00;100140.13;5000368;28;20225;-45
2023/01/30 07:59:26;;;;;;;25.58;5.38;;;;;;;4.44;100.00;100152.44;4999183;28;20189;-42
2023/01/30 08:01:52;;;;;;;32.40;5.90;;;;;;;4.46;100.00;100155.91;4995725;28;20225;-44
2023/01/30 08:04:17;;;;;;;27.15;4.70;;;;;;;4.44;100.00;100153.31;4994660;28;20551;-49
2023/01/30 08:06:43;;;;;;;30.58;5.97;;;;;;;4.42;100.00;100143.66;5003642;28;20193;-44
2023/01/30 08:09:09;;;;;;;30.17;4.95;;;;;;;4.33;100.00;100135.00;4997967;28;20699;-45
2023/01/30 08:11:34;;;;;;;26.55;5.10;;;;;;;4.39;100.00;100149.88;4993088;28;20591;-45
2023/01/30 08:14:00;;;;;;;30.58;5.60;;;;;;;4.29;100.00;100149.25;5000321;28;20211;-41
2023/01/30 08:16:25;;;;;;;30.52;4.60;;;;;;;4.30;100.00;100150.13;4994023;28;20185;-45
2023/01/30 08:18:51;;;;;;;28.48;4.57;;;;;;;4.31;100.00;100146.56;5010610;28;20195;-45
2023/01/30 08:21:16;;;;;;;35.70;5.32;;;;;;;4.17;100.00;100165.44;4997765;28;20264;-48
2023/01/30 08:23:42;;;;;;;33.03;5.65;;;;;;;4.07;100.00;100185.13;5002073;28;20201;-45
2023/01/30 08:26:07;;;;;;;31.67;4.60;;;;;;;3.81;100.00;100220.13;5010280;28;20268;-45
2023/01/30 08:28:33;;;;;;;7.43;1.55;;;;;;;3.42;100.00;100201.47;5003021;28;20288;-44
2023/01/30 08:30:58;;;;;;;9.05;1.50;;;;;;;3.17;100.00;100191.34;5002053;28;20225;-44
2023/01/30 08:33:24;;;;;;;13.68;2.58;;;;;;;2.94;100.00;100189.06;4999364;28;20327;-43
2023/01/30 08:35:50;;;;;;;9.32;1.27;;;;;;;2.91;100.00;100182.97;4996278;28;20185;-43
2023/01/30 08:38:15;;;;;;;6.15;1.25;;;;;;;2.83;100.00;100196.34;4999197;28;20208;-47
2023/01/30 08:40:41;;;;;;;9.35;1.70;;;;;;;2.77;100.00;100176.13;4998154;28;20220;-47
2023/01/30 08:43:07;;;;;;;6.07;1.35;;;;;;;2.68;100.00;100158.63;4997303;28;20226;-44
2023/01/30 08:45:32;;;;;;;6.40;1.15;;;;;;;2.75;100.00;100167.34;5000749;28;20201;-42
2023/01/30 08:47:59;;;;;;;8.07;1.95;;;;;;;2.73;100.00;100190.31;5003291;28;20196;-47
2023/01/30 08:50:25;;;;;;;15.27;1.70;;;;;;;2.70;100.00;100219.47;4997520;28;20191;-46
2023/01/30 08:52:50;;;;;;;6.50;1.48;;;;;;;2.84;100.00;100198.97;4999492;28;20268;-44
2023/01/30 08:55:17;;;;;;;10.10;1.48;;;;;;;2.58;100.00;100195.84;5000187;28;20725;-49
2023/01/30 08:57:42;;;;;;;8.15;1.17;;;;;;;2.62;100.00;100224.00;5000059;28;20208;-46
2023/01/30 09:00:08;;;;;;;7.63;1.33;;;;;;;2.48;100.00;100180.13;4999053;28;20180;-48
2023/01/30 09:02:34;;;;;;;6.43;1.63;;;;;;;2.40;100.00;100181.13;4999361;28;20193;-48
2023/01/30 09:04:59;;;;;;;6.05;1.30;;;;;;;2.41;100.00;100178.47;5000115;28;20217;-44
2023/01/30 09:07:27;;;;;;;9.23;1.48;;;;;;;2.35;100.00;100181.22;4996856;28;20213;-47
2023/01/30 09:09:54;;;;;;;6.53;1.40;;;;;;;2.38;100.00;100172.34;5000167;28;20675;-43
2023/01/30 09:12:20;;;;;;;15.43;2.33;;;;;;;2.48;100.00;100176.63;4998369;28;20239;-45
2023/01/30 09:14:45;;;;;;;12.95;2.13;;;;;;;2.45;100.00;100174.03;4996134;28;20273;-47
2023/01/30 09:17:11;;;;;;;13.18;2.40;;;;;;;2.56;100.00;100165.91;4998340;28;20295;-43
2023/01/30 09:19:37;;;;;;;16.90;2.47;;;;;;;2.63;100.00;100164.94;5000892;28;20184;-49
2023/01/30 09:22:03;;;;;;;10.52;2.70;;;;;;;2.75;100.00;100171.78;4996812;28;20612;-47
2023/01/30 09:24:29;;;;;;;20.13;2.85;;;;;;;2.98;100.00;100163.44;4998485;28;20601;-49
2023/01/30 09:26:57;;;;;;;11.70;3.13;;;;;;;3.00;100.00;100151.06;4998448;28;20204;-43
2023/01/30 09:29:24;;;;;;;14.63;2.95;;;;;;;3.05;100.00;100151.84;4996538;28;20193;-42
2023/01/30 09:31:50;;;;;;;18.23;3.33;;;;;;;3.31;100.00;100148.72;4997209;28;20243;-44
2023/01/30 09:34:15;;;;;;;22.92;4.35;;;;;;;3.46;100.00;100150.19;4991803;28;20237;-46
2023/01/30 09:36:41;;;;;;;20.08;3.75;;;;;;;3.61;100.00;100151.66;4991590;28;20220;-46
2023/01/30 09:39:07;;;;;;;21.15;4.35;;;;;;;3.62;100.00;100148.09;4998282;28;20216;-44
2023/01/30 09:41:57;;;;;;;30.67;5.03;;;;;;;3.65;100.00;100129.47;4995169;28;20550;-43
2023/01/30 09:44:54;;;;;;;18.10;3.50;;;;;;;3.69;100.00;100142.63;4996306;28;20684;-44
2023/01/30 09:47:25;;;;;;;27.90;4.78;;;;;;;3.81;100.00;100124.72;4996519;28;20276;-44
2023/01/30 09:50:12;;;;;;;19.40;3.65;;;;;;;3.96;100.00;100116.44;4995649;28;20188;-44
2023/01/30 09:52:53;;;;;;;28.25;4.50;;;;;;;4.11;100.00;100105.50;5001714;28;20235;-47
2023/01/30 09:55:21;;;;;;;26.77;3.50;;;;;;;4.46;100.00;100109.06;4995880;28;20187;-47
2023/01/30 09:57:48;;;;;;;20.20;3.38;;;;;;;4.60;100.00;100107.84;5001071;28;20231;-44
2023/01/30 10:00:38;;;;;;;17.13;3.78;;;;;;;4.54;100.00;100112.38;4999047;28;20193;-45
2023/01/30 10:03:17;;;;;;;21.98;5.45;;;;;;;4.64;100.00;100106.88;4997886;28;20201;-43
2023/01/30 10:05:55;;;;;;;20.02;3.90;;;;;;;4.53;100.00;100099.19;4998357;28;20243;-48
2023/01/30 10:08:56;;;;;;;16.27;3.17;;;;;;;4.46;100.00;100102.88;4996587;28;20208;-46
2023/01/30 10:11:29;;;;;;;17.45;3.22;;;;;;;4.43;100.00;100087.03;4996860;28;20188;-45
2023/01/30 10:14:32;;;;;;;25.05;4.03;;;;;;;4.35;100.00;100111.09;4997042;28;20204;-44
2023/01/30 10:17:45;;;;;;;18.80;3.20;;;;;;;4.20;100.00;100135.31;4998214;28;20223;-44
2023/01/30 10:20:30;;;;;;;26.45;3.63;;;;;;;3.97;100.00;100147.31;4999569;28;20196;-42
2023/01/30 10:23:20;;;;;;;19.42;3.95;;;;;;;3.63;100.00;100145.41;4996649;28;20200;-45
2023/01/30 10:25:56;;;;;;;13.02;2.90;;;;;;;3.62;100.00;100129.53;4997446;28;20213;-44
2023/01/30 10:28:29;;;;;;;12.48;2.38;;;;;;;3.41;100.00;100120.25;5002220;28;20577;-47
2023/01/30 10:31:02;;;;;;;6.13;1.50;;;;;;;3.34;100.00;100140.69;4998316;28;20238;-45
2023/01/30 10:33:35;;;;;;;4.78;1.25;;;;;;;3.35;100.00;100147.75;4995467;28;20219;-43
2023/01/30 10:36:12;;;;;;;11.98;1.30;;;;;;;3.10;100.00;100126.16;5001505;28;20185;-47
2023/01/30 10:38:51;;;;;;;10.07;1.90;;;;;;;3.17;100.00;100098.69;4997516;28;20214;-47
2023/01/30 10:41:23;;;;;;;11.95;2.15;;;;;;;3.21;100.00;100102.13;4996861;28;20272;-47
2023/01/30 10:44:03;;;;;;;6.72;1.63;;;;;;;3.39;100.00;100075.28;4997443;28;20334;-47
2023/01/30 10:46:37;;;;;;;9.73;1.67;;;;;;;3.49;100.00;100087.41;4996033;28;20284;-46
2023/01/30 10:49:12;;;;;;;9.27;1.88;;;;;;;3.60;100.00;100095.13;4997874;28;20197;-47
2023/01/30 10:51:56;;;;;;;13.13;2.47;;;;;;;3.59;100.00;100098.69;5013082;28;20566;-47
2023/01/30 10:54:44;;;;;;;12.70;2.25;;;;;;;3.68;100.00;100102.94;4995749;28;20684;-48
2023/01/30 10:57:22;;;;;;;6.82;2.20;;;;;;;3.70;100.00;100111.72;4996149;28;20219;-48
2023/01/30 10:59:54;;;;;;;12.40;2.20;;;;;;;3.71;100.00;100106.38;4996619;28;20181;-47
2023/01/30 11:02:24;;;;;;;21.23;3.00;;;;;;;3.75;100.00;100108.97;4996622;28;20186;-47
2023/01/30 11:05:03;;;;;;;19.60;2.78;;;;;;;3.87;100.00;100108.69;5000147;28;20299;-48
2023/01/30 11:07:31;;;;;;;21.50;3.13;;;;;;;3.85;100.00;100103.44;4991223;28;20300;-46
2023/01/30 11:09:59;;;;;;;16.50;3.03;;;;;;;3.98;100.00;100100.47;4993345;28;20301;-47
2023/01/30 11:12:24;;;;;;;15.75;3.00;;;;;;;3.96;100.00;100095.25;4997466;28;20195;-48
2023/01/30 11:15:02;;;;;;;16.25;3.15;;;;;;;4.00;100.00;100103.97;4999686;28;20296;-49
2023/01/30 11:17:34;;;;;;;19.73;3.22;;;;;;;4.05;100.00;100112.72;4996238;28;20742;-48
2023/01/30 11:20:07;;;;;;;14.23;2.25;;;;;;;4.09;100.00;100115.25;5006394;28;20550;-46
2023/01/30 11:22:35;;;;;;;13.68;2.75;;;;;;;4.13;100.00;100102.78;4997395;28;20176;-47
2023/01/30 11:25:14;;;;;;;12.00;2.67;;;;;;;4.22;100.00;100094.63;5004090;28;20265;-48
2023/01/30 11:27:43;;;;;;;20.25;3.13;;;;;;;4.31;100.00;100104.16;5000037;28;20231;-49
2023/01/30 11:30:13;;;;;;;17.10;2.97;;;;;;;4.51;100.00;100095.69;5003603;28;20183;-48
2023/01/30 11:32:41;;;;;;;13.02;2.38;;;;;;;4.64;100.00;100104.22;5000885;28;20207;-46
2023/01/30 11:35:06;;;;;;;15.93;3.38;;;;;;;4.56;100.00;100082.31;4998449;28;20201;-47
2023/01/30 11:37:38;;;;;;;16.45;3.40;;;;;;;4.76;100.00;100093.25;4998996;28;20229;-47